Terminal Aerodrome Forecast
Issued by NWS

Home | Current Version | Previous Version | Text Only | Print | Product List | Glossary On
Versions: 1 2 3 4 5 6 7 8 9 10 11 12 13 14 15 16
000
FTAK31 PANC 251338 AAA
TAFAGK
TAF AMD
PAGK 251338Z 2514/2612 VRB02KT P6SM FEW100
      TEMPO 2514/2516 1SM BR
     FM251800 VRB05KT P6SM SCT100
     FM260300 20007KT P6SM VCSH BKN080=

USA.gov is the U.S. government's official web portal to all federal, state and local government web resources and services.